sensor_id;sensor_type;location;lat;lon;timestamp;temperature;humidity
8910;DHT22;4490;49.072;8.804;2023-03-01T00:01:17;0.00;76.20
8910;DHT22;4490;49.072;8.804;2023-03-01T00:03:44;0.00;76.80
8910;DHT22;4490;49.072;8.804;2023-03-01T00:06:10;0.00;76.00
8910;DHT22;4490;49.072;8.804;2023-03-01T00:08:36;0.00;76.20
8910;DHT22;4490;49.072;8.804;2023-03-01T00:11:15;-0.10;76.50
8910;DHT22;4490;49.072;8.804;2023-03-01T00:13:43;0.00;76.60
8910;DHT22;4490;49.072;8.804;2023-03-01T00:16:18;-0.10;76.50
8910;DHT22;4490;49.072;8.804;2023-03-01T00:18:44;0.00;76.50
8910;DHT22;4490;49.072;8.804;2023-03-01T00:21:10;0.00;76.40
8910;DHT22;4490;49.072;8.804;2023-03-01T00:23:36;-0.10;76.20
8910;DHT22;4490;49.072;8.804;2023-03-01T00:26:06;-0.10;76.20
8910;DHT22;4490;49.072;8.804;2023-03-01T00:28:32;-0.10;76.30
8910;DHT22;4490;49.072;8.804;2023-03-01T00:31:07;-0.20;76.20
8910;DHT22;4490;49.072;8.804;2023-03-01T00:33:33;-0.30;76.40
8910;DHT22;4490;49.072;8.804;2023-03-01T00:35:59;-0.30;76.50
8910;DHT22;4490;49.072;8.804;2023-03-01T00:38:24;-0.30;76.80
8910;DHT22;4490;49.072;8.804;2023-03-01T00:40:50;-0.30;76.90
8910;DHT22;4490;49.072;8.804;2023-03-01T00:43:16;-0.30;77.70
8910;DHT22;4490;49.072;8.804;2023-03-01T00:45:41;-0.30;77.00
8910;DHT22;4490;49.072;8.804;2023-03-01T00:48:07;-0.30;77.20
8910;DHT22;4490;49.072;8.804;2023-03-01T00:50:32;-0.30;77.30
8910;DHT22;4490;49.072;8.804;2023-03-01T00:52:58;-0.30;77.50
8910;DHT22;4490;49.072;8.804;2023-03-01T00:55:24;-0.30;77.70
8910;DHT22;4490;49.072;8.804;2023-03-01T00:57:50;-0.30;77.90
8910;DHT22;4490;49.072;8.804;2023-03-01T01:00:16;-0.20;77.70
8910;DHT22;4490;49.072;8.804;2023-03-01T01:02:42;-0.20;77.80
8910;DHT22;4490;49.072;8.804;2023-03-01T01:05:08;-0.20;77.80
8910;DHT22;4490;49.072;8.804;2023-03-01T01:07:34;-0.20;77.90
8910;DHT22;4490;49.072;8.804;2023-03-01T01:10:00;-0.20;78.00
8910;DHT22;4490;49.072;8.804;2023-03-01T01:12:25;-0.20;77.90
8910;DHT22;4490;49.072;8.804;2023-03-01T01:14:51;-0.10;79.00
8910;DHT22;4490;49.072;8.804;2023-03-01T01:17:16;-0.10;78.00
8910;DHT22;4490;49.072;8.804;2023-03-01T01:19:42;-0.10;78.60
8910;DHT22;4490;49.072;8.804;2023-03-01T01:22:08;-0.10;77.80
8910;DHT22;4490;49.072;8.804;2023-03-01T01:24:33;-0.10;77.70
8910;DHT22;4490;49.072;8.804;2023-03-01T01:26:59;-0.10;77.60
8910;DHT22;4490;49.072;8.804;2023-03-01T01:29:24;-0.10;77.60
8910;DHT22;4490;49.072;8.804;2023-03-01T01:31:50;-0.20;77.40
8910;DHT22;4490;49.072;8.804;2023-03-01T01:34:18;-0.20;77.70
8910;DHT22;4490;49.072;8.804;2023-03-01T01:36:48;-0.30;77.80
8910;DHT22;4490;49.072;8.804;2023-03-01T01:39:15;-0.30;78.00
8910;DHT22;4490;49.072;8.804;2023-03-01T01:41:41;-0.30;78.00
8910;DHT22;4490;49.072;8.804;2023-03-01T01:44:20;-0.30;78.30
8910;DHT22;4490;49.072;8.804;2023-03-01T01:51:53;-0.40;78.70
8910;DHT22;4490;49.072;8.804;2023-03-01T01:54:27;-0.40;78.70
8910;DHT22;4490;49.072;8.804;2023-03-01T01:56:58;-0.30;79.10
8910;DHT22;4490;49.072;8.804;2023-03-01T01:59:25;-0.40;78.80
8910;DHT22;4490;49.072;8.804;2023-03-01T02:01:53;-0.30;79.00
8910;DHT22;4490;49.072;8.804;2023-03-01T02:04:19;-0.40;79.00
8910;DHT22;4490;49.072;8.804;2023-03-01T02:06:51;-0.40;79.00
8910;DHT22;4490;49.072;8.804;2023-03-01T02:09:20;-0.40;79.00
8910;DHT22;4490;49.072;8.804;2023-03-01T02:11:47;-0.40;79.20
8910;DHT22;4490;49.072;8.804;2023-03-01T02:14:14;-0.40;79.20
8910;DHT22;4490;49.072;8.804;2023-03-01T02:16:41;-0.40;79.20
8910;DHT22;4490;49.072;8.804;2023-03-01T02:19:09;-0.40;79.40
8910;DHT22;4490;49.072;8.804;2023-03-01T02:21:50;-0.40;79.40
8910;DHT22;4490;49.072;8.804;2023-03-01T02:24:35;-0.40;79.50
8910;DHT22;4490;49.072;8.804;2023-03-01T02:27:06;-0.40;79.50
8910;DHT22;4490;49.072;8.804;2023-03-01T02:29:32;-0.40;79.40
8910;DHT22;4490;49.072;8.804;2023-03-01T02:31:59;-0.40;79.50
8910;DHT22;4490;49.072;8.804;2023-03-01T02:34:27;-0.40;79.50
8910;DHT22;4490;49.072;8.804;2023-03-01T02:37:08;-0.40;79.60
8910;DHT22;4490;49.072;8.804;2023-03-01T02:39:38;-0.40;80.00
8910;DHT22;4490;49.072;8.804;2023-03-01T02:42:14;-0.40;80.00
8910;DHT22;4490;49.072;8.804;2023-03-01T02:44:41;-0.40;79.80
8910;DHT22;4490;49.072;8.804;2023-03-01T02:47:06;-0.40;79.90
8910;DHT22;4490;49.072;8.804;2023-03-01T02:49:35;-0.40;80.10
8910;DHT22;4490;49.072;8.804;2023-03-01T02:52:32;-0.40;80.20
8910;DHT22;4490;49.072;8.804;2023-03-01T02:55:04;-0.40;80.40
8910;DHT22;4490;49.072;8.804;2023-03-01T02:57:33;-0.40;80.20
8910;DHT22;4490;49.072;8.804;2023-03-01T03:00:03;-0.40;80.10
8910;DHT22;4490;49.072;8.804;2023-03-01T03:02:33;-0.40;80.10
8910;DHT22;4490;49.072;8.804;2023-03-01T03:05:12;-0.40;81.00
8910;DHT22;4490;49.072;8.804;2023-03-01T03:07:39;-0.40;80.40
8910;DHT22;4490;49.072;8.804;2023-03-01T03:10:10;-0.40;80.40
8910;DHT22;4490;49.072;8.804;2023-03-01T03:12:38;-0.40;80.50
8910;DHT22;4490;49.072;8.804;2023-03-01T03:15:05;-0.40;80.50
8910;DHT22;4490;49.072;8.804;2023-03-01T03:17:38;-0.40;80.60
8910;DHT22;4490;49.072;8.804;2023-03-01T03:20:06;-0.40;80.70
8910;DHT22;4490;49.072;8.804;2023-03-01T03:22:36;-0.40;80.80
8910;DHT22;4490;49.072;8.804;2023-03-01T03:25:02;-0.40;80.90
8910;DHT22;4490;49.072;8.804;2023-03-01T03:27:28;-0.50;80.80
8910;DHT22;4490;49.072;8.804;2023-03-01T03:29:53;-0.50;81.40
8910;DHT22;4490;49.072;8.804;2023-03-01T03:32:19;-0.50;81.00
8910;DHT22;4490;49.072;8.804;2023-03-01T03:34:44;-0.40;81.00
8910;DHT22;4490;49.072;8.804;2023-03-01T03:37:10;-0.40;81.00
8910;DHT22;4490;49.072;8.804;2023-03-01T03:39:56;-0.50;81.00
8910;DHT22;4490;49.072;8.804;2023-03-01T03:42:21;-0.50;81.00
8910;DHT22;4490;49.072;8.804;2023-03-01T03:44:48;-0.50;81.00
8910;DHT22;4490;49.072;8.804;2023-03-01T03:47:13;-0.50;81.00
8910;DHT22;4490;49.072;8.804;2023-03-01T03:49:39;-0.40;81.20
8910;DHT22;4490;49.072;8.804;2023-03-01T03:52:05;-0.40;81.20
8910;DHT22;4490;49.072;8.804;2023-03-01T03:54:41;-0.50;81.20
8910;DHT22;4490;49.072;8.804;2023-03-01T03:57:07;-0.50;81.30
8910;DHT22;4490;49.072;8.804;2023-03-01T03:59:32;-0.50;81.40
8910;DHT22;4490;49.072;8.804;2023-03-01T04:01:58;-0.50;81.50
8910;DHT22;4490;49.072;8.804;2023-03-01T04:04:24;-0.50;81.50
8910;DHT22;4490;49.072;8.804;2023-03-01T04:06:49;-0.50;81.60
8910;DHT22;4490;49.072;8.804;2023-03-01T04:09:15;-0.50;81.60
8910;DHT22;4490;49.072;8.804;2023-03-01T04:11:40;-0.50;81.70
8910;DHT22;4490;49.072;8.804;2023-03-01T04:14:06;-0.50;81.60
8910;DHT22;4490;49.072;8.804;2023-03-01T04:16:32;-0.50;81.60
8910;DHT22;4490;49.072;8.804;2023-03-01T04:18:57;-0.50;81.60
8910;DHT22;4490;49.072;8.804;2023-03-01T04:21:25;-0.50;81.70
8910;DHT22;4490;49.072;8.804;2023-03-01T04:23:51;-0.50;81.60
8910;DHT22;4490;49.072;8.804;2023-03-01T04:26:18;-0.50;81.60
8910;DHT22;4490;49.072;8.804;2023-03-01T04:28:45;-0.50;81.60
8910;DHT22;4490;49.072;8.804;2023-03-01T04:31:16;-0.50;82.10
8910;DHT22;4490;49.072;8.804;2023-03-01T04:33:46;-0.50;82.10
8910;DHT22;4490;49.072;8.804;2023-03-01T04:36:14;-0.50;82.30
8910;DHT22;4490;49.072;8.804;2023-03-01T04:38:40;-0.50;82.30
8910;DHT22;4490;49.072;8.804;2023-03-01T04:41:08;-0.50;82.40
8910;DHT22;4490;49.072;8.804;2023-03-01T04:43:34;-0.50;82.40
8910;DHT22;4490;49.072;8.804;2023-03-01T04:46:04;-0.60;82.30
8910;DHT22;4490;49.072;8.804;2023-03-01T04:48:32;-0.50;82.40
8910;DHT22;4490;49.072;8.804;2023-03-01T04:50:58;-0.60;82.30
8910;DHT22;4490;49.072;8.804;2023-03-01T04:53:24;-0.60;82.60
8910;DHT22;4490;49.072;8.804;2023-03-01T04:55:50;-0.60;82.60
8910;DHT22;4490;49.072;8.804;2023-03-01T04:58:16;-0.60;82.60
8910;DHT22;4490;49.072;8.804;2023-03-01T05:00:41;-0.60;82.70
8910;DHT22;4490;49.072;8.804;2023-03-01T05:03:08;-0.60;82.70
8910;DHT22;4490;49.072;8.804;2023-03-01T05:05:36;-0.60;82.60
8910;DHT22;4490;49.072;8.804;2023-03-01T05:08:07;-0.60;82.80
8910;DHT22;4490;49.072;8.804;2023-03-01T05:10:35;-0.60;82.60
8910;DHT22;4490;49.072;8.804;2023-03-01T05:13:02;-0.60;82.90
8910;DHT22;4490;49.072;8.804;2023-03-01T05:15:29;-0.70;82.70
8910;DHT22;4490;49.072;8.804;2023-03-01T05:17:57;-0.70;83.10
8910;DHT22;4490;49.072;8.804;2023-03-01T05:20:28;-0.70;83.10
8910;DHT22;4490;49.072;8.804;2023-03-01T05:22:56;-0.70;83.30
8910;DHT22;4490;49.072;8.804;2023-03-01T05:25:24;-0.70;83.20
8910;DHT22;4490;49.072;8.804;2023-03-01T05:27:50;-0.70;83.20
8910;DHT22;4490;49.072;8.804;2023-03-01T05:30:16;-0.70;83.20
8910;DHT22;4490;49.072;8.804;2023-03-01T05:32:44;-0.70;83.20
8910;DHT22;4490;49.072;8.804;2023-03-01T05:35:14;-0.70;83.40
8910;DHT22;4490;49.072;8.804;2023-03-01T05:37:42;-0.70;83.70
8910;DHT22;4490;49.072;8.804;2023-03-01T05:40:12;-0.70;84.30
8910;DHT22;4490;49.072;8.804;2023-03-01T05:42:42;-0.70;84.60
8910;DHT22;4490;49.072;8.804;2023-03-01T05:45:09;-0.70;84.00
8910;DHT22;4490;49.072;8.804;2023-03-01T05:47:35;-0.70;83.90
8910;DHT22;4490;49.072;8.804;2023-03-01T05:50:01;-0.70;84.30
8910;DHT22;4490;49.072;8.804;2023-03-01T05:52:27;-0.70;84.20
8910;DHT22;4490;49.072;8.804;2023-03-01T05:54:52;-0.70;84.00
8910;DHT22;4490;49.072;8.804;2023-03-01T05:57:18;-0.70;84.00
8910;DHT22;4490;49.072;8.804;2023-03-01T05:59:43;-0.70;84.00
8910;DHT22;4490;49.072;8.804;2023-03-01T06:02:09;-0.80;84.20
8910;DHT22;4490;49.072;8.804;2023-03-01T06:04:34;-0.70;84.20
8910;DHT22;4490;49.072;8.804;2023-03-01T06:07:00;-0.80;84.10
8910;DHT22;4490;49.072;8.804;2023-03-01T06:09:26;-0.70;84.20
8910;DHT22;4490;49.072;8.804;2023-03-01T06:11:51;-0.80;84.50
8910;DHT22;4490;49.072;8.804;2023-03-01T06:14:17;-0.80;84.50
8910;DHT22;4490;49.072;8.804;2023-03-01T06:16:42;-0.80;84.60
8910;DHT22;4490;49.072;8.804;2023-03-01T06:19:08;-0.80;84.70
8910;DHT22;4490;49.072;8.804;2023-03-01T06:21:33;-0.80;84.70
8910;DHT22;4490;49.072;8.804;2023-03-01T06:23:59;-0.80;84.70
8910;DHT22;4490;49.072;8.804;2023-03-01T06:26:25;-0.80;84.70
8910;DHT22;4490;49.072;8.804;2023-03-01T06:28:50;-0.70;84.80
8910;DHT22;4490;49.072;8.804;2023-03-01T06:31:16;-0.80;84.90
8910;DHT22;4490;49.072;8.804;2023-03-01T06:33:41;-0.70;85.10
8910;DHT22;4490;49.072;8.804;2023-03-01T06:36:07;-0.70;85.30
8910;DHT22;4490;49.072;8.804;2023-03-01T06:38:33;-0.70;85.60
8910;DHT22;4490;49.072;8.804;2023-03-01T06:40:59;-0.80;85.40
8910;DHT22;4490;49.072;8.804;2023-03-01T06:43:25;-0.70;85.50
8910;DHT22;4490;49.072;8.804;2023-03-01T06:45:51;-0.70;85.50
8910;DHT22;4490;49.072;8.804;2023-03-01T06:48:16;-0.70;85.60
8910;DHT22;4490;49.072;8.804;2023-03-01T06:50:42;-0.60;85.80
8910;DHT22;4490;49.072;8.804;2023-03-01T06:53:08;-0.60;85.70
8910;DHT22;4490;49.072;8.804;2023-03-01T06:55:33;-0.60;86.10
8910;DHT22;4490;49.072;8.804;2023-03-01T06:58:00;-0.60;85.80
8910;DHT22;4490;49.072;8.804;2023-03-01T07:00:28;-0.60;86.10
8910;DHT22;4490;49.072;8.804;2023-03-01T07:02:53;-0.60;85.90
8910;DHT22;4490;49.072;8.804;2023-03-01T07:05:19;-0.60;86.30
8910;DHT22;4490;49.072;8.804;2023-03-01T07:07:45;-0.60;86.40
8910;DHT22;4490;49.072;8.804;2023-03-01T07:10:11;-0.60;86.30
8910;DHT22;4490;49.072;8.804;2023-03-01T07:12:37;-0.60;86.80
8910;DHT22;4490;49.072;8.804;2023-03-01T07:15:03;-0.50;87.80
8910;DHT22;4490;49.072;8.804;2023-03-01T07:17:29;-0.50;87.20
8910;DHT22;4490;49.072;8.804;2023-03-01T07:19:56;-0.50;87.40
8910;DHT22;4490;49.072;8.804;2023-03-01T07:22:21;-0.40;87.40
8910;DHT22;4490;49.072;8.804;2023-03-01T07:24:47;-0.40;87.80
8910;DHT22;4490;49.072;8.804;2023-03-01T07:27:13;-0.40;88.20
8910;DHT22;4490;49.072;8.804;2023-03-01T07:29:38;-0.30;88.00
8910;DHT22;4490;49.072;8.804;2023-03-01T07:32:05;-0.30;89.30
8910;DHT22;4490;49.072;8.804;2023-03-01T07:34:31;-0.10;91.00
8910;DHT22;4490;49.072;8.804;2023-03-01T07:36:56;0.30;92.90
8910;DHT22;4490;49.072;8.804;2023-03-01T07:39:22;1.00;92.50
8910;DHT22;4490;49.072;8.804;2023-03-01T07:41:50;1.60;90.00
8910;DHT22;4490;49.072;8.804;2023-03-01T07:44:16;2.20;87.60
8910;DHT22;4490;49.072;8.804;2023-03-01T07:46:42;2.70;84.10
8910;DHT22;4490;49.072;8.804;2023-03-01T07:49:08;3.20;82.60
8910;DHT22;4490;49.072;8.804;2023-03-01T07:51:34;3.70;81.50
8910;DHT22;4490;49.072;8.804;2023-03-01T07:53:59;4.20;80.10
8910;DHT22;4490;49.072;8.804;2023-03-01T07:56:25;4.60;78.70
8910;DHT22;4490;49.072;8.804;2023-03-01T07:58:51;5.10;77.90
8910;DHT22;4490;49.072;8.804;2023-03-01T08:01:18;5.40;76.70
8910;DHT22;4490;49.072;8.804;2023-03-01T08:03:44;5.70;75.70
8910;DHT22;4490;49.072;8.804;2023-03-01T08:06:11;6.10;74.60
8910;DHT22;4490;49.072;8.804;2023-03-01T08:08:37;6.40;73.00
8910;DHT22;4490;49.072;8.804;2023-03-01T08:11:04;6.80;72.70
8910;DHT22;4490;49.072;8.804;2023-03-01T08:13:31;7.00;70.70
8910;DHT22;4490;49.072;8.804;2023-03-01T08:16:13;7.20;69.50
8910;DHT22;4490;49.072;8.804;2023-03-01T08:18:39;7.50;69.00
8910;DHT22;4490;49.072;8.804;2023-03-01T08:21:10;7.70;69.00
8910;DHT22;4490;49.072;8.804;2023-03-01T08:23:36;7.90;67.80
8910;DHT22;4490;49.072;8.804;2023-03-01T08:26:18;8.00;67.00
8910;DHT22;4490;49.072;8.804;2023-03-01T08:28:44;8.20;67.10
8910;DHT22;4490;49.072;8.804;2023-03-01T08:31:28;8.20;66.50
8910;DHT22;4490;49.072;8.804;2023-03-01T08:33:56;8.50;64.50
8910;DHT22;4490;49.072;8.804;2023-03-01T08:36:24;8.60;66.10
8910;DHT22;4490;49.072;8.804;2023-03-01T08:38:51;8.80;65.30
8910;DHT22;4490;49.072;8.804;2023-03-01T08:41:17;9.00;64.20
8910;DHT22;4490;49.072;8.804;2023-03-01T08:43:43;9.20;63.90
8910;DHT22;4490;49.072;8.804;2023-03-01T08:46:09;9.40;63.40
8910;DHT22;4490;49.072;8.804;2023-03-01T08:48:34;9.60;62.60
8910;DHT22;4490;49.072;8.804;2023-03-01T08:51:12;10.00;61.40
8910;DHT22;4490;49.072;8.804;2023-03-01T08:53:38;10.20;59.70
8910;DHT22;4490;49.072;8.804;2023-03-01T08:56:04;10.20;59.80
8910;DHT22;4490;49.072;8.804;2023-03-01T08:58:30;10.10;59.60
8910;DHT22;4490;49.072;8.804;2023-03-01T09:00:56;9.80;59.40
8910;DHT22;4490;49.072;8.804;2023-03-01T09:03:25;9.20;60.00
8910;DHT22;4490;49.072;8.804;2023-03-01T09:05:51;8.60;60.70
8910;DHT22;4490;49.072;8.804;2023-03-01T09:08:17;7.90;62.00
8910;DHT22;4490;49.072;8.804;2023-03-01T09:10:43;7.40;62.90
8910;DHT22;4490;49.072;8.804;2023-03-01T09:13:08;6.90;63.80
8910;DHT22;4490;49.072;8.804;2023-03-01T09:15:36;6.50;64.60
8910;DHT22;4490;49.072;8.804;2023-03-01T09:18:02;6.20;65.50
8910;DHT22;4490;49.072;8.804;2023-03-01T09:20:28;5.90;65.70
8910;DHT22;4490;49.072;8.804;2023-03-01T09:22:56;5.70;66.50
8910;DHT22;4490;49.072;8.804;2023-03-01T09:25:21;5.40;66.90
8910;DHT22;4490;49.072;8.804;2023-03-01T09:27:50;5.30;67.60
8910;DHT22;4490;49.072;8.804;2023-03-01T09:30:16;5.20;68.40
8910;DHT22;4490;49.072;8.804;2023-03-01T09:32:42;5.00;68.70
8910;DHT22;4490;49.072;8.804;2023-03-01T09:35:08;5.00;69.80
8910;DHT22;4490;49.072;8.804;2023-03-01T09:37:35;4.90;69.50
8910;DHT22;4490;49.072;8.804;2023-03-01T09:40:02;4.80;69.80
8910;DHT22;4490;49.072;8.804;2023-03-01T09:42:29;4.70;70.00
8910;DHT22;4490;49.072;8.804;2023-03-01T09:45:25;4.70;70.50
8910;DHT22;4490;49.072;8.804;2023-03-01T09:47:51;4.70;70.20
8910;DHT22;4490;49.072;8.804;2023-03-01T09:50:20;4.60;70.30
8910;DHT22;4490;49.072;8.804;2023-03-01T09:52:47;4.60;70.10
8910;DHT22;4490;49.072;8.804;2023-03-01T09:55:38;4.60;70.90
8910;DHT22;4490;49.072;8.804;2023-03-01T10:00:52;4.60;71.00
8910;DHT22;4490;49.072;8.804;2023-03-01T10:06:11;4.70;71.10
8910;DHT22;4490;49.072;8.804;2023-03-01T10:11:28;4.80;71.40
8910;DHT22;4490;49.072;8.804;2023-03-01T10:14:06;4.90;71.60
8910;DHT22;4490;49.072;8.804;2023-03-01T10:16:57;4.90;71.70
8910;DHT22;4490;49.072;8.804;2023-03-01T10:19:31;5.00;71.50
8910;DHT22;4490;49.072;8.804;2023-03-01T10:22:17;5.10;71.70
8910;DHT22;4490;49.072;8.804;2023-03-01T10:24:47;5.20;71.70
8910;DHT22;4490;49.072;8.804;2023-03-01T10:30:19;5.50;71.60
8910;DHT22;4490;49.072;8.804;2023-03-01T10:32:47;5.80;71.20
8910;DHT22;4490;49.072;8.804;2023-03-01T10:35:24;5.90;70.80
8910;DHT22;4490;49.072;8.804;2023-03-01T10:38:08;6.20;70.80
8910;DHT22;4490;49.072;8.804;2023-03-01T10:40:35;6.30;70.10
8910;DHT22;4490;49.072;8.804;2023-03-01T10:43:05;6.50;69.90
8910;DHT22;4490;49.072;8.804;2023-03-01T10:45:38;6.70;69.60
8910;DHT22;4490;49.072;8.804;2023-03-01T10:48:26;6.80;69.50
8910;DHT22;4490;49.072;8.804;2023-03-01T10:53:34;7.10;69.20
8910;DHT22;4490;49.072;8.804;2023-03-01T10:56:07;7.20;68.90
8910;DHT22;4490;49.072;8.804;2023-03-01T10:58:35;7.40;69.30
8910;DHT22;4490;49.072;8.804;2023-03-01T11:03:43;7.80;68.40
8910;DHT22;4490;49.072;8.804;2023-03-01T11:14:23;8.30;65.50
8910;DHT22;4490;49.072;8.804;2023-03-01T11:17:00;8.40;66.10
8910;DHT22;4490;49.072;8.804;2023-03-01T11:19:26;8.50;66.20
8910;DHT22;4490;49.072;8.804;2023-03-01T11:27:22;8.90;65.60
8910;DHT22;4490;49.072;8.804;2023-03-01T11:32:51;9.30;65.00
8910;DHT22;4490;49.072;8.804;2023-03-01T11:35:21;9.50;64.70
8910;DHT22;4490;49.072;8.804;2023-03-01T11:40:27;9.80;63.70
8910;DHT22;4490;49.072;8.804;2023-03-01T11:43:05;9.90;63.80
8910;DHT22;4490;49.072;8.804;2023-03-01T11:45:43;10.00;62.60
8910;DHT22;4490;49.072;8.804;2023-03-01T11:48:25;10.30;62.70
8910;DHT22;4490;49.072;8.804;2023-03-01T11:50:56;10.50;62.30
8910;DHT22;4490;49.072;8.804;2023-03-01T12:11:28;11.80;58.30
8910;DHT22;4490;49.072;8.804;2023-03-01T12:30:35;12.50;56.00
8910;DHT22;4490;49.072;8.804;2023-03-01T12:38:49;12.70;56.10
8910;DHT22;4490;49.072;8.804;2023-03-01T12:49:16;12.80;55.40
8910;DHT22;4490;49.072;8.804;2023-03-01T12:52:26;12.90;55.40
8910;DHT22;4490;49.072;8.804;2023-03-01T12:54:44;12.90;55.60
8910;DHT22;4490;49.072;8.804;2023-03-01T12:57:41;12.90;55.60
8910;DHT22;4490;49.072;8.804;2023-03-01T13:00:39;13.10;54.40
8910;DHT22;4490;49.072;8.804;2023-03-01T13:11:23;13.40;54.30
8910;DHT22;4490;49.072;8.804;2023-03-01T13:13:49;13.30;54.80
8910;DHT22;4490;49.072;8.804;2023-03-01T13:21:44;13.70;54.30
8910;DHT22;4490;49.072;8.804;2023-03-01T13:24:33;13.80;54.00
8910;DHT22;4490;49.072;8.804;2023-03-01T13:29:50;13.70;52.70
8910;DHT22;4490;49.072;8.804;2023-03-01T13:32:30;13.70;53.10
8910;DHT22;4490;49.072;8.804;2023-03-01T13:35:40;13.60;53.50
8910;DHT22;4490;49.072;8.804;2023-03-01T13:37:49;13.60;53.60
8910;DHT22;4490;49.072;8.804;2023-03-01T13:42:54;13.40;54.10
8910;DHT22;4490;49.072;8.804;2023-03-01T13:45:33;13.40;53.70
8910;DHT22;4490;49.072;8.804;2023-03-01T13:48:04;13.40;53.60
8910;DHT22;4490;49.072;8.804;2023-03-01T13:50:38;13.50;54.00
8910;DHT22;4490;49.072;8.804;2023-03-01T13:53:14;13.50;54.00
8910;DHT22;4490;49.072;8.804;2023-03-01T13:55:44;13.60;53.50
8910;DHT22;4490;49.072;8.804;2023-03-01T13:58:28;13.60;53.50
8910;DHT22;4490;49.072;8.804;2023-03-01T14:01:06;13.80;52.60
8910;DHT22;4490;49.072;8.804;2023-03-01T14:03:39;13.80;53.20
8910;DHT22;4490;49.072;8.804;2023-03-01T14:06:11;13.70;53.10
8910;DHT22;4490;49.072;8.804;2023-03-01T14:08:38;13.70;53.00
8910;DHT22;4490;49.072;8.804;2023-03-01T14:19:31;13.80;52.70
8910;DHT22;4490;49.072;8.804;2023-03-01T14:24:31;13.70;52.50
8910;DHT22;4490;49.072;8.804;2023-03-01T14:27:01;13.60;52.30
8910;DHT22;4490;49.072;8.804;2023-03-01T14:29:36;13.50;52.20
8910;DHT22;4490;49.072;8.804;2023-03-01T14:32:24;13.50;52.10
8910;DHT22;4490;49.072;8.804;2023-03-01T14:34:50;13.60;52.10
8910;DHT22;4490;49.072;8.804;2023-03-01T14:37:33;13.50;52.20
8910;DHT22;4490;49.072;8.804;2023-03-01T14:40:03;13.60;52.20
8910;DHT22;4490;49.072;8.804;2023-03-01T14:42:33;13.50;51.90
8910;DHT22;4490;49.072;8.804;2023-03-01T14:45:01;13.50;52.00
8910;DHT22;4490;49.072;8.804;2023-03-01T14:47:32;13.40;51.60
8910;DHT22;4490;49.072;8.804;2023-03-01T14:50:20;13.40;51.90
8910;DHT22;4490;49.072;8.804;2023-03-01T14:52:49;13.40;51.80
8910;DHT22;4490;49.072;8.804;2023-03-01T14:55:18;13.40;52.10
8910;DHT22;4490;49.072;8.804;2023-03-01T14:57:47;13.40;52.00
8910;DHT22;4490;49.072;8.804;2023-03-01T15:00:20;13.40;52.10
8910;DHT22;4490;49.072;8.804;2023-03-01T15:02:48;13.30;52.00
8910;DHT22;4490;49.072;8.804;2023-03-01T15:05:18;13.40;52.10
8910;DHT22;4490;49.072;8.804;2023-03-01T15:07:45;13.30;52.10
8910;DHT22;4490;49.072;8.804;2023-03-01T15:10:29;13.30;51.90
8910;DHT22;4490;49.072;8.804;2023-03-01T15:12:55;13.30;51.60
8910;DHT22;4490;49.072;8.804;2023-03-01T15:15:37;13.20;52.70
8910;DHT22;4490;49.072;8.804;2023-03-01T15:18:11;13.20;51.70
8910;DHT22;4490;49.072;8.804;2023-03-01T15:20:38;13.10;52.00
8910;DHT22;4490;49.072;8.804;2023-03-01T15:23:04;13.00;52.00
8910;DHT22;4490;49.072;8.804;2023-03-01T15:25:31;12.80;51.90
8910;DHT22;4490;49.072;8.804;2023-03-01T15:27:58;12.70;52.10
8910;DHT22;4490;49.072;8.804;2023-03-01T15:30:27;12.50;52.10
8910;DHT22;4490;49.072;8.804;2023-03-01T15:35:50;12.20;52.60
8910;DHT22;4490;49.072;8.804;2023-03-01T15:41:02;11.70;53.00
8910;DHT22;4490;49.072;8.804;2023-03-01T15:43:43;11.60;53.30
8910;DHT22;4490;49.072;8.804;2023-03-01T15:46:29;11.40;53.30
8910;DHT22;4490;49.072;8.804;2023-03-01T15:48:59;11.20;53.50
8910;DHT22;4490;49.072;8.804;2023-03-01T15:51:35;11.00;53.70
8910;DHT22;4490;49.072;8.804;2023-03-01T15:54:11;10.80;54.10
8910;DHT22;4490;49.072;8.804;2023-03-01T15:56:39;10.60;54.20
8910;DHT22;4490;49.072;8.804;2023-03-01T15:59:05;10.40;54.40
8910;DHT22;4490;49.072;8.804;2023-03-01T16:01:32;10.30;54.70
8910;DHT22;4490;49.072;8.804;2023-03-01T16:04:00;10.10;55.00
8910;DHT22;4490;49.072;8.804;2023-03-01T16:06:25;9.90;56.10
8910;DHT22;4490;49.072;8.804;2023-03-01T16:08:51;9.80;56.30
8910;DHT22;4490;49.072;8.804;2023-03-01T16:11:19;9.70;56.50
8910;DHT22;4490;49.072;8.804;2023-03-01T16:13:45;9.50;56.90
8910;DHT22;4490;49.072;8.804;2023-03-01T16:16:13;9.40;56.90
8910;DHT22;4490;49.072;8.804;2023-03-01T16:18:45;9.40;57.70
8910;DHT22;4490;49.072;8.804;2023-03-01T16:21:25;9.30;57.40
8910;DHT22;4490;49.072;8.804;2023-03-01T16:23:51;9.30;57.60
8910;DHT22;4490;49.072;8.804;2023-03-01T16:26:17;9.20;57.60
8910;DHT22;4490;49.072;8.804;2023-03-01T16:28:45;9.10;57.70
8910;DHT22;4490;49.072;8.804;2023-03-01T16:31:11;9.00;58.00
8910;DHT22;4490;49.072;8.804;2023-03-01T16:33:37;8.90;57.90
8910;DHT22;4490;49.072;8.804;2023-03-01T16:36:11;8.90;58.20
8910;DHT22;4490;49.072;8.804;2023-03-01T16:38:37;8.80;58.50
8910;DHT22;4490;49.072;8.804;2023-03-01T16:41:03;8.70;58.40
8910;DHT22;4490;49.072;8.804;2023-03-01T16:43:29;8.60;58.50
8910;DHT22;4490;49.072;8.804;2023-03-01T16:45:55;8.60;58.60
8910;DHT22;4490;49.072;8.804;2023-03-01T16:48:21;8.50;58.80
8910;DHT22;4490;49.072;8.804;2023-03-01T16:50:56;8.40;59.00
8910;DHT22;4490;49.072;8.804;2023-03-01T16:53:22;8.30;59.20
8910;DHT22;4490;49.072;8.804;2023-03-01T16:55:56;8.20;59.50
8910;DHT22;4490;49.072;8.804;2023-03-01T16:58:22;8.10;59.60
8910;DHT22;4490;49.072;8.804;2023-03-01T17:00:51;8.10;59.80
8910;DHT22;4490;49.072;8.804;2023-03-01T17:03:19;8.00;59.70
8910;DHT22;4490;49.072;8.804;2023-03-01T17:05:45;7.90;59.60
8910;DHT22;4490;49.072;8.804;2023-03-01T17:08:11;7.90;59.80
8910;DHT22;4490;49.072;8.804;2023-03-01T17:10:36;7.90;60.20
8910;DHT22;4490;49.072;8.804;2023-03-01T17:13:02;7.80;60.20
8910;DHT22;4490;49.072;8.804;2023-03-01T17:15:30;7.80;60.00
8910;DHT22;4490;49.072;8.804;2023-03-01T17:17:55;7.70;60.00
8910;DHT22;4490;49.072;8.804;2023-03-01T17:20:21;7.70;60.10
8910;DHT22;4490;49.072;8.804;2023-03-01T17:22:47;7.70;60.30
8910;DHT22;4490;49.072;8.804;2023-03-01T17:25:13;7.60;60.40
8910;DHT22;4490;49.072;8.804;2023-03-01T17:27:39;7.50;60.80
8910;DHT22;4490;49.072;8.804;2023-03-01T17:30:06;7.40;60.90
8910;DHT22;4490;49.072;8.804;2023-03-01T17:32:32;7.40;61.50
8910;DHT22;4490;49.072;8.804;2023-03-01T17:34:58;7.20;61.50
8910;DHT22;4490;49.072;8.804;2023-03-01T17:37:23;7.10;61.80
8910;DHT22;4490;49.072;8.804;2023-03-01T17:39:49;7.10;61.80
8910;DHT22;4490;49.072;8.804;2023-03-01T17:42:15;7.00;62.10
8910;DHT22;4490;49.072;8.804;2023-03-01T17:44:41;6.90;62.30
8910;DHT22;4490;49.072;8.804;2023-03-01T17:47:06;6.80;62.70
8910;DHT22;4490;49.072;8.804;2023-03-01T17:49:32;6.70;63.30
8910;DHT22;4490;49.072;8.804;2023-03-01T17:51:58;6.50;63.20
8910;DHT22;4490;49.072;8.804;2023-03-01T17:54:25;6.40;63.40
8910;DHT22;4490;49.072;8.804;2023-03-01T17:56:51;6.20;63.80
8910;DHT22;4490;49.072;8.804;2023-03-01T17:59:17;6.10;64.00
8910;DHT22;4490;49.072;8.804;2023-03-01T18:01:43;6.00;64.30
8910;DHT22;4490;49.072;8.804;2023-03-01T18:04:08;5.80;64.20
8910;DHT22;4490;49.072;8.804;2023-03-01T18:06:35;5.70;64.30
8910;DHT22;4490;49.072;8.804;2023-03-01T18:09:02;5.60;64.80
8910;DHT22;4490;49.072;8.804;2023-03-01T18:11:28;5.50;65.00
8910;DHT22;4490;49.072;8.804;2023-03-01T18:13:54;5.40;64.90
8910;DHT22;4490;49.072;8.804;2023-03-01T18:16:21;5.20;65.20
8910;DHT22;4490;49.072;8.804;2023-03-01T18:18:50;5.20;65.30
8910;DHT22;4490;49.072;8.804;2023-03-01T18:21:16;5.10;65.50
8910;DHT22;4490;49.072;8.804;2023-03-01T18:23:43;5.00;65.50